createdAt,value
2023-03-02T00:02:01.958Z,15.13
2023-03-02T00:05:01.381Z,18.80
2023-03-02T00:07:32.688Z,22.70
2023-03-02T00:09:59.531Z,21.27
2023-03-02T00:12:32.145Z,17.80
2023-03-02T00:14:58.507Z,18.50
2023-03-02T00:17:28.266Z,17.17
2023-03-02T00:19:55.631Z,18.13
2023-03-02T00:22:22.053Z,19.98
2023-03-02T00:24:48.577Z,19.90
2023-03-02T00:27:15.025Z,15.63
2023-03-02T00:29:42.088Z,17.05
2023-03-02T00:32:08.936Z,17.33
2023-03-02T00:34:35.320Z,15.90
2023-03-02T00:37:01.770Z,17.27
2023-03-02T00:39:28.183Z,20.08
2023-03-02T00:41:54.576Z,17.70
2023-03-02T00:44:20.971Z,18.80
2023-03-02T00:46:47.392Z,22.13
2023-03-02T00:49:13.842Z,21.98
2023-03-02T00:51:40.262Z,22.63
2023-03-02T00:54:06.634Z,20.77
2023-03-02T00:56:33.362Z,22.17
2023-03-02T00:59:05.540Z,24.45
2023-03-02T01:01:32.106Z,21.13
2023-03-02T01:03:58.478Z,18.02
2023-03-02T01:06:24.825Z,20.85
2023-03-02T01:08:51.359Z,19.02
2023-03-02T01:11:20.464Z,22.30
2023-03-02T01:13:47.990Z,19.33
2023-03-02T01:16:15.294Z,19.83
2023-03-02T01:18:41.815Z,20.65
2023-03-02T01:21:12.050Z,17.13
2023-03-02T01:23:38.471Z,21.55
2023-03-02T01:26:07.280Z,19.48
2023-03-02T01:28:33.717Z,18.83
2023-03-02T01:31:02.532Z,22.02
2023-03-02T01:33:29.020Z,21.48
2023-03-02T01:35:55.465Z,20.85
2023-03-02T01:38:21.836Z,22.20
2023-03-02T01:40:48.222Z,20.17
2023-03-02T01:43:16.349Z,20.13
2023-03-02T01:45:43.124Z,18.85
2023-03-02T01:48:12.452Z,20.73
2023-03-02T01:50:39.471Z,19.45
2023-03-02T01:53:06.559Z,23.92
2023-03-02T01:55:34.970Z,16.90
2023-03-02T01:58:02.605Z,21.85
2023-03-02T02:00:34.593Z,22.70
2023-03-02T02:03:08.884Z,15.77
2023-03-02T02:05:39.673Z,19.48
2023-03-02T02:08:06.946Z,20.45
2023-03-02T02:10:34.030Z,19.15
2023-03-02T02:13:01.157Z,19.58
2023-03-02T02:15:27.684Z,21.55
2023-03-02T02:17:55.518Z,19.52
2023-03-02T02:20:31.095Z,20.10
2023-03-02T02:23:29.367Z,17.67
2023-03-02T02:25:55.873Z,21.98
2023-03-02T02:28:29.014Z,20.88
2023-03-02T02:31:22.428Z,18.58
2023-03-02T02:33:53.228Z,18.42
2023-03-02T02:36:23.855Z,18.17
2023-03-02T02:38:54.365Z,16.40
2023-03-02T02:41:25.649Z,18.02
2023-03-02T02:43:52.216Z,21.45
2023-03-02T02:46:18.901Z,21.48
2023-03-02T02:48:45.330Z,20.75
2023-03-02T02:51:18.381Z,19.58
2023-03-02T02:53:49.906Z,17.98
2023-03-02T02:56:17.407Z,17.25
2023-03-02T02:58:49.124Z,20.65
2023-03-02T03:01:18.789Z,20.08
2023-03-02T03:03:57.670Z,22.25
2023-03-02T03:06:27.863Z,18.80
2023-03-02T03:08:58.278Z,21.90
2023-03-02T03:11:27.836Z,20.27
2023-03-02T03:13:59.491Z,21.15
2023-03-02T03:16:27.990Z,19.02
2023-03-02T03:18:58.695Z,24.27
2023-03-02T03:21:26.200Z,21.90
2023-03-02T03:23:52.565Z,18.27
2023-03-02T03:26:19.255Z,21.30
2023-03-02T03:28:45.618Z,20.40
2023-03-02T03:31:12.202Z,20.17
2023-03-02T03:33:38.654Z,16.02
2023-03-02T03:36:05.600Z,19.92
2023-03-02T03:38:32.560Z,19.95
2023-03-02T03:40:58.995Z,23.55
2023-03-02T03:43:25.345Z,21.40
2023-03-02T03:45:52.032Z,15.45
2023-03-02T03:48:18.478Z,20.27
2023-03-02T03:50:45.130Z,21.38
2023-03-02T03:53:11.581Z,23.67
2023-03-02T03:55:37.981Z,23.92
2023-03-02T03:58:04.365Z,20.30
2023-03-02T04:00:30.849Z,23.70
2023-03-02T04:02:57.387Z,22.48
2023-03-02T04:05:23.987Z,20.40
2023-03-02T04:07:50.477Z,21.77
2023-03-02T04:10:17.014Z,20.67
2023-03-02T04:12:43.481Z,19.25
2023-03-02T04:15:15.975Z,20.65
2023-03-02T04:17:44.875Z,21.92
2023-03-02T04:20:16.631Z,20.92
2023-03-02T04:22:45.836Z,22.05
2023-03-02T04:25:13.439Z,24.38
2023-03-02T04:27:40.502Z,24.02
2023-03-02T04:30:08.424Z,26.10
2023-03-02T04:32:35.027Z,22.35
2023-03-02T04:35:01.445Z,25.52
2023-03-02T04:37:27.882Z,22.60
2023-03-02T04:39:54.297Z,22.27
2023-03-02T04:42:21.226Z,26.83
2023-03-02T04:44:48.162Z,23.65
2023-03-02T04:47:14.664Z,22.80
2023-03-02T04:49:41.221Z,20.55
2023-03-02T04:52:07.695Z,20.60
2023-03-02T04:54:34.221Z,22.75
2023-03-02T04:57:00.598Z,23.77
2023-03-02T04:59:28.877Z,22.63
2023-03-02T05:01:58.568Z,22.02
2023-03-02T05:04:26.230Z,20.88
2023-03-02T05:06:52.792Z,24.80
2023-03-02T05:09:19.400Z,21.85
2023-03-02T05:11:45.858Z,21.45
2023-03-02T05:14:13.216Z,25.45
2023-03-02T05:16:41.713Z,24.73
2023-03-02T05:19:10.669Z,22.50
2023-03-02T05:21:37.205Z,23.80
2023-03-02T05:24:03.999Z,24.58
2023-03-02T05:26:30.805Z,26.20
2023-03-02T05:28:57.583Z,24.52
2023-03-02T05:31:29.922Z,22.48
2023-03-02T05:33:56.584Z,24.42
2023-03-02T05:36:23.434Z,24.02
2023-03-02T05:38:50.105Z,22.35
2023-03-02T05:41:16.581Z,23.67
2023-03-02T05:43:43.294Z,24.27
2023-03-02T05:46:09.684Z,27.27
2023-03-02T05:48:36.051Z,28.90
2023-03-02T05:51:02.533Z,24.98
2023-03-02T05:53:28.971Z,26.10
2023-03-02T05:55:55.550Z,30.40
2023-03-02T05:58:22.089Z,27.48
2023-03-02T06:00:49.087Z,25.27
2023-03-02T06:03:16.795Z,22.40
2023-03-02T06:05:43.743Z,24.02
2023-03-02T06:08:10.348Z,28.80
2023-03-02T06:10:36.882Z,29.33
2023-03-02T06:13:03.228Z,29.05
2023-03-02T06:15:29.795Z,23.77
2023-03-02T06:17:57.213Z,22.58
2023-03-02T06:20:23.980Z,24.02
2023-03-02T06:22:50.410Z,22.80
2023-03-02T06:25:25.913Z,26.17
2023-03-02T06:27:53.697Z,26.80
2023-03-02T06:30:22.810Z,29.77
2023-03-02T06:32:49.346Z,24.85
2023-03-02T06:35:16.564Z,26.05
2023-03-02T06:37:44.317Z,21.90
2023-03-02T06:40:13.523Z,25.50
2023-03-02T06:42:41.353Z,26.27
2023-03-02T06:45:08.805Z,26.05
2023-03-02T06:47:35.340Z,25.42
2023-03-02T06:50:02.103Z,26.83
2023-03-02T06:52:28.837Z,23.67
2023-03-02T06:54:56.296Z,24.65
2023-03-02T06:57:23.362Z,27.02
2023-03-02T06:59:49.752Z,25.80
2023-03-02T07:02:16.132Z,22.38
2023-03-02T07:04:42.576Z,28.23
2023-03-02T07:07:09.110Z,23.40
2023-03-02T07:09:35.819Z,23.67
2023-03-02T07:12:02.352Z,26.05
2023-03-02T07:14:28.743Z,23.42
2023-03-02T07:16:57.408Z,23.77
2023-03-02T07:19:23.974Z,26.90
2023-03-02T07:21:51.453Z,23.48
2023-03-02T07:24:17.896Z,25.23
2023-03-02T07:26:45.450Z,23.65
2023-03-02T07:29:11.789Z,27.58
2023-03-02T07:31:38.242Z,25.10
2023-03-02T07:34:04.707Z,22.25
2023-03-02T07:36:31.090Z,24.15
2023-03-02T07:38:57.540Z,23.23
2023-03-02T07:41:23.897Z,23.83
2023-03-02T07:43:50.249Z,23.20
2023-03-02T07:46:16.788Z,24.75
2023-03-02T07:48:43.379Z,25.98
2023-03-02T07:51:09.838Z,24.35
2023-03-02T07:53:36.361Z,23.23
2023-03-02T07:56:07.825Z,22.15
2023-03-02T07:58:35.345Z,23.65
2023-03-02T08:01:01.953Z,22.17
2023-03-02T08:03:28.463Z,23.92
2023-03-02T08:05:55.139Z,23.80
2023-03-02T08:08:21.505Z,22.90
2023-03-02T08:10:47.897Z,23.92
2023-03-02T08:13:14.290Z,25.73
2023-03-02T08:15:40.634Z,21.65
2023-03-02T08:18:06.979Z,22.80
2023-03-02T08:20:33.446Z,24.15
2023-03-02T08:22:59.882Z,21.92
2023-03-02T08:25:26.482Z,24.45
2023-03-02T08:27:52.839Z,23.30
2023-03-02T08:30:19.492Z,23.17
2023-03-02T08:32:46.068Z,21.90
2023-03-02T08:35:12.942Z,23.92
2023-03-02T08:37:39.345Z,23.08
2023-03-02T08:40:06.385Z,21.15
2023-03-02T08:42:32.773Z,23.58
2023-03-02T08:44:59.126Z,22.80
2023-03-02T08:47:25.520Z,23.05
2023-03-02T08:49:51.922Z,23.90
2023-03-02T08:52:18.380Z,25.05
2023-03-02T08:54:44.954Z,23.58
2023-03-02T08:57:11.950Z,24.58
2023-03-02T08:59:38.631Z,21.70
2023-03-02T09:02:05.370Z,24.00
2023-03-02T09:04:31.972Z,25.23
2023-03-02T09:06:58.420Z,24.27
2023-03-02T09:09:24.965Z,20.15
2023-03-02T09:11:51.313Z,23.17
2023-03-02T09:14:17.793Z,22.95
2023-03-02T09:16:45.336Z,21.98
2023-03-02T09:19:13.340Z,26.10
2023-03-02T09:21:39.776Z,23.38
2023-03-02T09:24:06.391Z,22.63
2023-03-02T09:26:32.773Z,20.50
2023-03-02T09:28:59.180Z,24.02
2023-03-02T09:31:25.663Z,23.77
2023-03-02T09:33:52.418Z,23.40
2023-03-02T09:36:23.634Z,22.15
2023-03-02T09:41:37.032Z,21.85
2023-03-02T09:44:30.722Z,19.98
2023-03-02T09:47:04.793Z,22.98
2023-03-02T09:49:50.477Z,22.20
2023-03-02T09:52:35.250Z,21.88
2023-03-02T09:55:27.647Z,25.27
2023-03-02T09:57:55.809Z,18.92
2023-03-02T10:00:28.391Z,20.95
2023-03-02T10:03:17.414Z,22.10
2023-03-02T10:05:47.589Z,22.65
2023-03-02T10:08:21.002Z,22.80
2023-03-02T10:11:05.150Z,24.02
2023-03-02T10:13:42.137Z,23.65
2023-03-02T10:16:29.580Z,21.48
2023-03-02T10:19:05.734Z,21.05
2023-03-02T10:21:39.445Z,19.80
2023-03-02T10:24:17.060Z,21.25
2023-03-02T10:26:46.572Z,19.30
2023-03-02T10:29:29.344Z,23.75
2023-03-02T10:32:16.169Z,20.25
2023-03-02T10:34:42.664Z,20.45
2023-03-02T10:37:15.740Z,22.83
2023-03-02T10:39:42.771Z,18.73
2023-03-02T10:42:21.233Z,20.33
2023-03-02T10:44:54.062Z,20.23
2023-03-02T10:47:26.750Z,17.73
2023-03-02T10:49:55.292Z,21.73
2023-03-02T10:52:26.933Z,20.02
2023-03-02T10:55:13.232Z,21.23
2023-03-02T10:57:41.904Z,18.25
2023-03-02T11:00:25.446Z,21.05
2023-03-02T11:03:04.099Z,20.08
2023-03-02T11:05:37.157Z,23.38
2023-03-02T11:08:19.466Z,18.63
2023-03-02T11:11:01.414Z,20.08
2023-03-02T11:13:39.462Z,20.52
2023-03-02T11:16:18.198Z,21.70
2023-03-02T11:19:06.588Z,20.60
2023-03-02T11:21:35.672Z,22.38
2023-03-02T11:24:36.733Z,20.20
2023-03-02T11:27:19.958Z,20.48
2023-03-02T11:30:04.540Z,18.38
2023-03-02T11:32:44.942Z,19.85
2023-03-02T11:35:44.779Z,22.73
2023-03-02T11:38:36.596Z,17.80
2023-03-02T11:41:13.766Z,15.40
2023-03-02T11:43:40.291Z,20.30
2023-03-02T11:46:21.717Z,21.08
2023-03-02T11:48:52.820Z,19.30
2023-03-02T11:51:27.864Z,16.75
2023-03-02T11:54:05.034Z,17.80
2023-03-02T11:56:35.109Z,20.60
2023-03-02T11:59:07.527Z,20.35
2023-03-02T12:01:36.162Z,17.85
2023-03-02T12:04:25.216Z,17.45
2023-03-02T12:06:51.611Z,17.90
2023-03-02T12:09:23.776Z,19.35
2023-03-02T12:11:57.153Z,17.42
2023-03-02T12:14:39.070Z,18.20
2023-03-02T12:17:27.498Z,18.63
2023-03-02T12:20:07.256Z,18.05
2023-03-02T12:22:34.921Z,19.20
2023-03-02T12:25:25.108Z,20.17
2023-03-02T12:27:53.905Z,18.95
2023-03-02T12:30:28.499Z,16.50
2023-03-02T12:33:19.253Z,20.58
2023-03-02T12:35:47.203Z,14.48
2023-03-02T12:38:22.779Z,16.08
2023-03-02T12:41:04.214Z,16.00
2023-03-02T12:43:41.372Z,20.02
2023-03-02T12:46:30.774Z,19.95
2023-03-02T12:49:01.250Z,19.67
2023-03-02T12:51:32.251Z,24.98
2023-03-02T12:56:39.470Z,16.05
2023-03-02T12:59:05.884Z,17.58
2023-03-02T13:01:33.884Z,17.90
2023-03-02T13:04:00.548Z,15.48
2023-03-02T13:06:31.579Z,14.95
2023-03-02T13:09:00.361Z,20.25
2023-03-02T13:11:31.796Z,18.77
2023-03-02T13:13:59.874Z,16.33
2023-03-02T13:16:35.209Z,20.27
2023-03-02T13:19:18.240Z,16.83
2023-03-02T13:21:44.855Z,17.88
2023-03-02T13:24:34.464Z,18.42
2023-03-02T13:27:07.047Z,14.55
2023-03-02T13:29:33.854Z,17.77
2023-03-02T13:32:24.683Z,15.52
2023-03-02T13:34:55.655Z,16.23
2023-03-02T13:39:59.106Z,15.13
2023-03-02T13:42:36.177Z,13.30
2023-03-02T13:45:24.820Z,15.30
2023-03-02T13:47:52.201Z,14.95
2023-03-02T13:50:22.067Z,15.15
2023-03-02T13:52:49.351Z,15.68
2023-03-02T13:55:20.729Z,18.95
2023-03-02T13:57:48.929Z,14.68
2023-03-02T14:00:28.341Z,13.68
2023-03-02T14:02:54.701Z,15.32
2023-03-02T14:05:32.737Z,17.30
2023-03-02T14:08:00.544Z,16.38
2023-03-02T14:10:27.204Z,18.27
2023-03-02T14:12:59.692Z,16.73
2023-03-02T14:15:26.493Z,16.13
2023-03-02T14:17:52.968Z,17.33
2023-03-02T14:20:20.179Z,18.30
2023-03-02T14:22:47.919Z,17.50
2023-03-02T14:25:15.097Z,17.00
2023-03-02T14:27:42.466Z,19.83
2023-03-02T14:30:18.762Z,18.75
2023-03-02T14:32:45.613Z,19.20
2023-03-02T14:35:14.347Z,21.33
2023-03-02T14:37:43.636Z,19.80
2023-03-02T14:40:16.913Z,18.83
2023-03-02T14:42:43.346Z,21.98
2023-03-02T14:45:10.747Z,20.88
2023-03-02T14:47:37.149Z,22.65
2023-03-02T14:50:05.260Z,18.88
2023-03-02T14:52:44.148Z,20.77
2023-03-02T14:55:20.115Z,17.67
2023-03-02T14:57:49.980Z,19.48
2023-03-02T15:00:16.961Z,19.48
2023-03-02T15:02:43.457Z,23.77
2023-03-02T15:05:10.197Z,20.75
2023-03-02T15:07:38.872Z,16.27
2023-03-02T15:10:06.057Z,18.77
2023-03-02T15:12:32.461Z,16.60
2023-03-02T15:14:58.874Z,21.30
2023-03-02T15:17:25.486Z,16.90
2023-03-02T15:19:51.922Z,19.23
2023-03-02T15:22:18.360Z,17.65
2023-03-02T15:24:44.742Z,21.13
2023-03-02T15:27:11.146Z,20.15
2023-03-02T15:29:37.577Z,18.80
2023-03-02T15:32:04.235Z,18.95
2023-03-02T15:34:30.595Z,20.75
2023-03-02T15:36:56.954Z,19.60
2023-03-02T15:39:23.362Z,18.15
2023-03-02T15:41:49.738Z,17.30
2023-03-02T15:44:24.498Z,16.20
2023-03-02T15:46:54.164Z,16.85
2023-03-02T15:49:22.805Z,20.25
2023-03-02T15:51:51.825Z,21.08
2023-03-02T15:54:18.784Z,17.80
2023-03-02T15:56:45.284Z,16.73
2023-03-02T15:59:11.946Z,14.23
2023-03-02T16:01:38.489Z,14.50
2023-03-02T16:04:06.142Z,16.30
2023-03-02T16:06:32.504Z,16.25
2023-03-02T16:08:58.888Z,14.48
2023-03-02T16:11:25.255Z,13.95
2023-03-02T16:13:52.259Z,14.57
2023-03-02T16:16:20.589Z,12.38
2023-03-02T16:18:55.225Z,12.15
2023-03-02T16:21:22.082Z,11.45
2023-03-02T16:23:48.553Z,12.52
2023-03-02T16:26:18.362Z,9.68
2023-03-02T16:28:45.203Z,13.38
2023-03-02T16:31:17.289Z,12.10
2023-03-02T16:33:44.702Z,14.20
2023-03-02T16:36:12.527Z,14.73
2023-03-02T16:38:39.175Z,10.98
2023-03-02T16:41:12.658Z,14.80
2023-03-02T16:43:51.254Z,11.57
2023-03-02T16:46:18.612Z,11.88
2023-03-02T16:48:45.663Z,11.85
2023-03-02T16:51:12.733Z,12.35
2023-03-02T16:53:40.715Z,14.73
2023-03-02T16:56:09.381Z,10.65
2023-03-02T16:58:38.217Z,15.45
2023-03-02T17:01:06.605Z,13.95
2023-03-02T17:03:34.122Z,12.15
2023-03-02T17:06:01.422Z,15.63
2023-03-02T17:08:28.487Z,14.18
2023-03-02T17:10:54.871Z,17.25
2023-03-02T17:13:21.308Z,14.05
2023-03-02T17:15:47.741Z,16.75
2023-03-02T17:18:14.101Z,18.15
2023-03-02T17:20:40.751Z,15.15
2023-03-02T17:23:07.286Z,14.52
2023-03-02T17:25:33.750Z,12.68
2023-03-02T17:28:00.165Z,14.70
2023-03-02T17:30:26.796Z,14.25
2023-03-02T17:32:53.129Z,16.95
2023-03-02T17:35:19.712Z,14.93
2023-03-02T17:37:46.178Z,15.90
2023-03-02T17:40:15.288Z,15.00
2023-03-02T17:42:41.843Z,14.30
2023-03-02T17:45:08.848Z,17.85
2023-03-02T17:47:35.274Z,16.30
2023-03-02T17:50:04.034Z,13.80
2023-03-02T17:52:30.640Z,12.77
2023-03-02T17:54:56.998Z,14.52
2023-03-02T17:57:24.412Z,16.50
2023-03-02T17:59:50.935Z,14.70
2023-03-02T18:02:18.321Z,16.38
2023-03-02T18:04:45.627Z,14.98
2023-03-02T18:07:13.117Z,18.30
2023-03-02T18:09:39.586Z,17.10
2023-03-02T18:12:07.453Z,16.67
2023-03-02T18:14:34.562Z,21.38
2023-03-02T18:17:01.871Z,13.43
2023-03-02T18:19:28.237Z,16.10
2023-03-02T18:21:54.718Z,15.57
2023-03-02T18:24:21.312Z,19.73
2023-03-02T18:26:47.711Z,17.15
2023-03-02T18:29:14.093Z,18.88
2023-03-02T18:31:40.544Z,15.25
2023-03-02T18:34:07.067Z,15.65
2023-03-02T18:36:33.440Z,16.67
2023-03-02T18:38:59.891Z,17.02
2023-03-02T18:41:26.424Z,15.43
2023-03-02T18:43:52.878Z,22.58
2023-03-02T18:46:21.877Z,17.60
2023-03-02T18:48:50.218Z,16.25
2023-03-02T18:51:18.682Z,20.45
2023-03-02T18:53:45.580Z,19.88
2023-03-02T18:56:12.581Z,16.05
2023-03-02T18:58:39.380Z,19.52
2023-03-02T19:01:06.615Z,21.30
2023-03-02T19:03:35.390Z,22.70
2023-03-02T19:06:01.849Z,16.77
2023-03-02T19:08:29.524Z,18.20
2023-03-02T19:10:55.995Z,17.50
2023-03-02T19:13:23.227Z,18.15
2023-03-02T19:15:50.293Z,18.30
2023-03-02T19:18:18.602Z,16.63
2023-03-02T19:20:46.753Z,16.05
2023-03-02T19:23:13.393Z,16.98
2023-03-02T19:25:39.998Z,17.15
2023-03-02T19:28:07.301Z,15.20
2023-03-02T19:30:34.646Z,15.38
2023-03-02T19:33:02.284Z,18.30
2023-03-02T19:35:29.951Z,14.75
2023-03-02T19:37:56.677Z,18.25
2023-03-02T19:40:26.098Z,27.77
2023-03-02T19:42:54.086Z,21.38
2023-03-02T19:45:32.299Z,14.23
2023-03-02T19:48:00.620Z,15.00
2023-03-02T19:50:28.305Z,18.10
2023-03-02T19:52:55.151Z,23.85
2023-03-02T19:55:24.147Z,21.60
2023-03-02T19:57:56.272Z,18.60
2023-03-02T20:00:24.058Z,23.08
2023-03-02T20:02:50.916Z,21.42
2023-03-02T20:05:18.010Z,21.15
2023-03-02T20:07:44.649Z,20.58
2023-03-02T20:10:14.156Z,20.73
2023-03-02T20:12:40.491Z,18.77
2023-03-02T20:15:07.339Z,17.67
2023-03-02T20:17:33.861Z,16.23
2023-03-02T20:20:01.223Z,23.15
2023-03-02T20:22:27.806Z,21.23
2023-03-02T20:24:54.194Z,23.85
2023-03-02T20:27:21.138Z,26.80
2023-03-02T20:29:47.865Z,23.40
2023-03-02T20:32:15.241Z,22.45
2023-03-02T20:34:43.024Z,20.17
2023-03-02T20:37:12.202Z,23.60
2023-03-02T20:39:41.377Z,22.75
2023-03-02T20:42:08.686Z,23.13
2023-03-02T20:44:35.793Z,24.33
2023-03-02T20:47:08.116Z,24.98
2023-03-02T20:49:36.413Z,20.58
2023-03-02T20:52:03.679Z,23.35
2023-03-02T20:54:33.754Z,25.42
2023-03-02T20:57:00.198Z,23.00
2023-03-02T20:59:27.185Z,21.30
2023-03-02T21:01:54.124Z,19.90
2023-03-02T21:04:21.030Z,20.85
2023-03-02T21:06:47.862Z,20.40
2023-03-02T21:09:14.821Z,26.42
2023-03-02T21:11:41.348Z,21.98
2023-03-02T21:14:08.174Z,25.90
2023-03-02T21:16:38.521Z,23.98
2023-03-02T21:19:08.612Z,24.70
2023-03-02T21:21:41.741Z,26.35
2023-03-02T21:24:16.566Z,27.33
2023-03-02T21:26:44.822Z,21.60
2023-03-02T21:29:13.183Z,19.15
2023-03-02T21:31:42.140Z,21.13
2023-03-02T21:34:08.642Z,22.50
2023-03-02T21:36:35.113Z,25.55
2023-03-02T21:39:02.248Z,23.45
2023-03-02T21:41:28.722Z,24.80
2023-03-02T21:43:55.185Z,25.67
2023-03-02T21:46:23.000Z,23.92
2023-03-02T21:48:51.301Z,21.45
2023-03-02T21:51:17.898Z,22.90
2023-03-02T21:53:44.611Z,24.27
2023-03-02T21:56:20.241Z,18.42
2023-03-02T21:58:48.558Z,25.00
2023-03-02T22:01:15.814Z,19.20
2023-03-02T22:03:43.143Z,23.00
2023-03-02T22:06:24.879Z,25.90
2023-03-02T22:08:51.762Z,25.33
2023-03-02T22:11:23.769Z,22.58
2023-03-02T22:13:52.017Z,26.88
2023-03-02T22:16:19.961Z,23.45
2023-03-02T22:18:48.444Z,22.63
2023-03-02T22:21:30.046Z,41.55
2023-03-02T22:24:09.832Z,33.60
2023-03-02T22:26:40.945Z,24.33
2023-03-02T22:29:23.999Z,26.95
2023-03-02T22:31:53.135Z,21.50
2023-03-02T22:34:29.292Z,24.70
2023-03-02T22:37:02.984Z,24.27
2023-03-02T22:39:32.934Z,24.65
2023-03-02T22:42:06.559Z,23.58
2023-03-02T22:44:33.520Z,25.95
2023-03-02T22:47:00.044Z,21.75
2023-03-02T22:49:28.641Z,24.60
2023-03-02T22:52:00.330Z,29.70
2023-03-02T22:54:36.149Z,24.50
2023-03-02T22:57:02.893Z,24.48
2023-03-02T22:59:36.399Z,22.40
2023-03-02T23:02:17.653Z,23.20
2023-03-02T23:04:46.431Z,23.88
2023-03-02T23:07:25.800Z,26.65
2023-03-02T23:09:52.204Z,27.70
2023-03-02T23:12:26.977Z,25.38
2023-03-02T23:14:57.957Z,29.25
2023-03-02T23:17:31.681Z,23.98
2023-03-02T23:19:58.268Z,22.60
2023-03-02T23:22:28.417Z,29.33
2023-03-02T23:24:55.519Z,22.33
2023-03-02T23:27:21.994Z,24.70
2023-03-02T23:29:48.435Z,23.88
2023-03-02T23:32:16.259Z,28.02
2023-03-02T23:34:43.554Z,28.30
2023-03-02T23:37:10.014Z,25.90
2023-03-02T23:39:36.389Z,25.00
2023-03-02T23:42:02.993Z,35.08
2023-03-02T23:44:29.484Z,21.75
2023-03-02T23:46:55.845Z,27.15
2023-03-02T23:49:22.383Z,24.58
2023-03-02T23:51:48.826Z,23.63
2023-03-02T23:54:15.238Z,28.50
2023-03-02T23:56:41.718Z,31.60
2023-03-02T23:59:08.130Z,30.70
